createdAt,value
2022-11-10T00:01:19.369Z,0.00
2022-11-10T00:03:49.455Z,0.00
2022-11-10T00:06:19.215Z,0.00
2022-11-10T00:11:19.331Z,0.00
2022-11-10T00:13:59.162Z,0.00
2022-11-10T00:18:49.586Z,0.00
2022-11-10T00:23:49.270Z,0.00
2022-11-10T00:26:19.441Z,0.00
2022-11-10T00:28:49.161Z,0.00
2022-11-10T00:31:19.212Z,0.00
2022-11-10T00:36:19.383Z,0.00
2022-11-10T00:38:49.435Z,0.00
2022-11-10T00:46:19.473Z,0.10
2022-11-10T00:48:49.308Z,0.10
2022-11-10T00:51:23.198Z,0.00
2022-11-10T00:53:49.800Z,0.00
2022-11-10T00:56:20.657Z,0.00
2022-11-10T00:58:49.804Z,0.00
2022-11-10T01:01:21.449Z,0.00
2022-11-10T01:03:49.792Z,0.00
2022-11-10T01:06:20.482Z,0.00
2022-11-10T01:08:49.455Z,0.00
2022-11-10T01:11:22.564Z,0.00
2022-11-10T01:13:50.939Z,0.00
2022-11-10T01:16:21.635Z,0.00
2022-11-10T01:18:50.417Z,0.00
2022-11-10T01:23:49.752Z,0.00
2022-11-10T01:26:20.018Z,0.00
2022-11-10T01:28:49.345Z,0.00
2022-11-10T01:31:21.007Z,0.60
2022-11-10T01:33:49.184Z,0.60
2022-11-10T01:36:19.191Z,0.60
2022-11-10T01:38:49.499Z,0.60
2022-11-10T01:41:19.269Z,0.00
2022-11-10T01:43:49.262Z,0.00
2022-11-10T01:46:19.379Z,0.00
2022-11-10T01:48:52.620Z,0.00
2022-11-10T01:51:25.014Z,0.00
2022-11-10T01:53:53.709Z,0.00
2022-11-10T02:01:19.576Z,1.00
2022-11-10T02:03:51.505Z,1.00
2022-11-10T02:06:23.824Z,1.00
2022-11-10T02:08:50.205Z,1.00
2022-11-10T02:11:19.761Z,0.00
2022-11-10T02:13:49.646Z,0.00
2022-11-10T02:16:20.785Z,0.00
2022-11-10T02:18:49.518Z,0.00
2022-11-10T02:21:20.238Z,0.00
2022-11-10T02:23:51.197Z,0.00
2022-11-10T02:26:23.255Z,0.00
2022-11-10T02:28:49.634Z,0.00
2022-11-10T02:31:19.226Z,0.90
2022-11-10T02:33:49.354Z,0.90
2022-11-10T02:36:19.363Z,0.90
2022-11-10T02:38:49.256Z,0.90
2022-11-10T02:41:20.390Z,0.00
2022-11-10T02:43:49.987Z,0.00
2022-11-10T02:46:19.413Z,0.00
2022-11-10T02:51:19.491Z,0.10
2022-11-10T02:53:49.318Z,0.10
2022-11-10T02:56:19.476Z,0.10
2022-11-10T02:58:49.285Z,0.10
2022-11-10T03:01:19.285Z,0.00
2022-11-10T03:03:49.248Z,0.00
2022-11-10T03:06:19.407Z,0.00
2022-11-10T03:11:19.437Z,0.00
2022-11-10T03:16:19.240Z,0.00
2022-11-10T03:18:49.426Z,0.00
2022-11-10T03:23:49.491Z,0.00
2022-11-10T03:26:19.295Z,0.00
2022-11-10T03:28:49.946Z,0.00
2022-11-10T03:33:49.454Z,0.00
2022-11-10T03:36:19.425Z,0.00
2022-11-10T03:41:20.658Z,0.00
2022-11-10T03:43:49.344Z,0.00
2022-11-10T03:48:53.513Z,0.00
2022-11-10T03:51:19.521Z,0.00
2022-11-10T03:53:49.680Z,0.00
2022-11-10T03:56:19.242Z,0.00
2022-11-10T03:58:49.241Z,0.00
2022-11-10T04:01:19.540Z,0.00
2022-11-10T04:03:51.695Z,0.00
2022-11-10T04:06:29.192Z,0.00
2022-11-10T04:08:59.033Z,0.00
2022-11-10T04:11:29.562Z,2.00
2022-11-10T04:13:59.215Z,2.00
2022-11-10T04:16:19.270Z,2.00
2022-11-10T04:18:49.295Z,2.00
2022-11-10T04:23:49.456Z,0.10
2022-11-10T04:26:29.218Z,0.10
2022-11-10T04:28:52.499Z,0.10
2022-11-10T04:33:49.966Z,0.00
2022-11-10T04:38:49.721Z,0.00
2022-11-10T04:41:19.462Z,0.00
2022-11-10T04:43:49.803Z,0.00
2022-11-10T04:46:23.510Z,0.00
2022-11-10T04:48:50.077Z,0.00
2022-11-10T04:51:22.381Z,0.00
2022-11-10T04:53:49.620Z,0.00
2022-11-10T05:01:21.798Z,0.00
2022-11-10T05:03:50.496Z,0.00
2022-11-10T05:06:19.353Z,0.00
2022-11-10T05:08:49.856Z,0.00
2022-11-10T05:16:19.426Z,0.40
2022-11-10T05:18:53.184Z,0.40
2022-11-10T05:23:49.400Z,0.30
2022-11-10T05:26:19.303Z,0.30
2022-11-10T05:28:49.726Z,0.30
2022-11-10T05:31:19.392Z,0.40
2022-11-10T05:33:49.271Z,0.40
2022-11-10T05:36:19.317Z,0.40
2022-11-10T05:38:49.304Z,0.40
2022-11-10T05:43:49.544Z,0.00
2022-11-10T05:46:19.303Z,0.00
2022-11-10T05:48:49.409Z,0.00
2022-11-10T05:51:19.293Z,0.00
2022-11-10T05:53:49.289Z,0.00
2022-11-10T05:58:49.672Z,0.00
2022-11-10T06:01:19.346Z,0.70
2022-11-10T06:03:49.359Z,0.70
2022-11-10T06:06:19.812Z,0.70
2022-11-10T06:08:49.550Z,0.70
2022-11-10T06:11:19.626Z,0.00
2022-11-10T06:16:19.398Z,0.00
2022-11-10T06:21:19.318Z,0.10
2022-11-10T06:23:49.388Z,0.10
2022-11-10T06:26:19.449Z,0.10
2022-11-10T06:28:49.308Z,0.10
2022-11-10T06:31:19.339Z,0.00
2022-11-10T06:33:49.357Z,0.00
2022-11-10T06:36:19.720Z,0.00
2022-11-10T06:38:49.322Z,0.00
2022-11-10T06:43:51.248Z,0.50
2022-11-10T06:46:19.318Z,0.50
2022-11-10T06:48:49.715Z,0.50
2022-11-10T06:51:19.495Z,0.00
2022-11-10T06:53:49.438Z,0.00
2022-11-10T06:56:19.385Z,0.00
2022-11-10T06:58:49.434Z,0.00
2022-11-10T07:01:25.204Z,0.00
2022-11-10T07:04:17.592Z,0.00
2022-11-10T07:06:21.178Z,0.00
2022-11-10T07:08:49.319Z,0.00
2022-11-10T07:11:19.304Z,0.40
2022-11-10T07:13:49.687Z,0.40
2022-11-10T07:16:23.285Z,0.40
2022-11-10T07:18:49.468Z,0.40
2022-11-10T07:23:49.439Z,0.00
2022-11-10T07:28:49.576Z,0.00
2022-11-10T07:31:19.334Z,0.00
2022-11-10T07:33:54.267Z,0.00
2022-11-10T07:38:49.372Z,0.00
2022-11-10T07:41:19.601Z,0.20
2022-11-10T07:43:49.347Z,0.20
2022-11-10T07:46:19.359Z,0.20
2022-11-10T07:48:49.591Z,0.20
2022-11-10T07:51:19.418Z,0.00
2022-11-10T07:53:49.678Z,0.00
2022-11-10T07:56:19.357Z,0.00
2022-11-10T07:58:49.342Z,0.00
2022-11-10T08:01:19.403Z,0.00
2022-11-10T08:03:49.797Z,0.00
2022-11-10T08:06:20.515Z,0.00
2022-11-10T08:08:49.750Z,0.00
2022-11-10T08:11:19.602Z,0.00
2022-11-10T08:13:49.483Z,0.00
2022-11-10T08:16:19.481Z,0.00
2022-11-10T08:18:49.614Z,0.00
2022-11-10T08:21:19.389Z,1.20
2022-11-10T08:23:49.372Z,1.20
2022-11-10T08:26:19.471Z,1.20
2022-11-10T08:28:49.530Z,1.20
2022-11-10T08:31:20.066Z,0.50
2022-11-10T08:33:49.683Z,0.50
2022-11-10T08:36:19.397Z,0.50
2022-11-10T08:38:49.364Z,0.50
2022-11-10T08:43:49.662Z,0.00
2022-11-10T08:46:19.368Z,0.00
2022-11-10T08:48:49.368Z,0.00
2022-11-10T08:51:20.710Z,0.00
2022-11-10T08:53:49.367Z,0.00
2022-11-10T08:56:19.692Z,0.00
2022-11-10T08:58:53.461Z,0.00
2022-11-10T09:01:19.615Z,0.70
2022-11-10T09:03:49.349Z,0.70
2022-11-10T09:06:20.998Z,0.70
2022-11-10T09:08:49.352Z,0.70
2022-11-10T09:11:19.408Z,0.00
2022-11-10T09:16:19.485Z,0.00
2022-11-10T09:18:49.556Z,0.00
2022-11-10T09:21:19.416Z,0.00
2022-11-10T09:23:49.458Z,0.00
2022-11-10T09:26:19.422Z,0.00
2022-11-10T09:28:50.047Z,0.00
2022-11-10T09:31:19.365Z,0.00
2022-11-10T09:33:49.391Z,0.00
2022-11-10T09:36:19.501Z,0.00
2022-11-10T09:38:49.408Z,0.00
2022-11-10T09:41:19.945Z,0.10
2022-11-10T09:44:01.083Z,0.10
2022-11-10T09:46:24.356Z,0.10
2022-11-10T09:48:55.064Z,0.10
2022-11-10T09:51:23.776Z,0.00
2022-11-10T09:53:55.023Z,0.00
2022-11-10T09:56:26.836Z,0.00
2022-11-10T09:58:50.626Z,0.00
2022-11-10T10:01:29.948Z,0.10
2022-11-10T10:04:00.842Z,0.10
2022-11-10T10:06:21.207Z,0.10
2022-11-10T10:09:03.030Z,0.10
2022-11-10T10:11:32.514Z,0.20
2022-11-10T10:14:06.616Z,0.20
2022-11-10T10:16:26.239Z,0.20
2022-11-10T10:18:57.978Z,0.20
2022-11-10T10:21:34.830Z,0.10
2022-11-10T10:24:09.332Z,0.10
2022-11-10T10:26:23.215Z,0.10
2022-11-10T10:28:50.669Z,0.10
2022-11-10T10:31:23.899Z,0.10
2022-11-10T10:33:50.355Z,0.10
2022-11-10T10:38:53.659Z,0.10
2022-11-10T10:41:23.922Z,0.10
2022-11-10T10:43:52.622Z,0.10
2022-11-10T10:46:25.727Z,0.10
2022-11-10T10:51:27.951Z,0.00
2022-11-10T10:53:49.421Z,0.00
2022-11-10T10:56:24.298Z,0.00
2022-11-10T10:58:52.463Z,0.00
2022-11-10T11:01:30.029Z,0.00
2022-11-10T11:03:51.615Z,0.00
2022-11-10T11:06:24.265Z,0.00
2022-11-10T11:11:24.317Z,0.20
2022-11-10T11:13:49.547Z,0.20
2022-11-10T11:16:19.480Z,0.20
2022-11-10T11:18:49.737Z,0.20
2022-11-10T11:21:32.731Z,0.10
2022-11-10T11:24:01.543Z,0.10
2022-11-10T11:26:25.334Z,0.10
2022-11-10T11:29:01.712Z,0.10
2022-11-10T11:31:30.457Z,0.00
2022-11-10T11:34:00.179Z,0.00
2022-11-10T11:36:29.286Z,0.00
2022-11-10T11:38:57.386Z,0.00
2022-11-10T11:41:30.518Z,0.20
2022-11-10T11:44:07.891Z,0.20
2022-11-10T11:46:30.043Z,0.20
2022-11-10T11:48:56.852Z,0.20
2022-11-10T11:51:28.156Z,0.10
2022-11-10T11:54:04.975Z,0.10
2022-11-10T11:56:24.263Z,0.10
2022-11-10T11:59:02.675Z,0.10
2022-11-10T12:01:38.437Z,0.60
2022-11-10T12:04:09.211Z,0.60
2022-11-10T12:06:30.678Z,0.60
2022-11-10T12:08:59.746Z,0.60
2022-11-10T12:11:29.145Z,0.10
2022-11-10T12:13:58.547Z,0.10
2022-11-10T12:16:25.307Z,0.10
2022-11-10T12:19:01.393Z,0.10
2022-11-10T12:21:24.906Z,0.20
2022-11-10T12:24:09.794Z,0.20
2022-11-10T12:26:32.536Z,0.20
2022-11-10T12:28:55.003Z,0.20
2022-11-10T12:31:22.506Z,0.00
2022-11-10T12:33:56.403Z,0.00
2022-11-10T12:36:21.448Z,0.00
2022-11-10T12:39:00.174Z,0.00
2022-11-10T12:41:21.317Z,0.10
2022-11-10T12:44:01.797Z,0.10
2022-11-10T12:46:19.456Z,0.10
2022-11-10T12:49:04.971Z,0.10
2022-11-10T12:51:26.931Z,0.00
2022-11-10T12:53:50.285Z,0.00
2022-11-10T12:56:24.776Z,0.00
2022-11-10T12:59:09.315Z,0.00
2022-11-10T13:01:19.949Z,0.00
2022-11-10T13:03:55.137Z,0.00
2022-11-10T13:06:25.895Z,0.00
2022-11-10T13:08:49.639Z,0.00
2022-11-10T13:11:25.579Z,0.10
2022-11-10T13:13:58.187Z,0.10
2022-11-10T13:16:39.615Z,0.10
2022-11-10T13:21:39.279Z,0.00
2022-11-10T13:24:09.270Z,0.00
2022-11-10T13:26:39.251Z,0.00
2022-11-10T13:28:59.751Z,0.00
2022-11-10T13:31:37.957Z,0.00
2022-11-10T13:34:08.900Z,0.00
2022-11-10T13:36:35.887Z,0.00
2022-11-10T13:38:50.457Z,0.00
2022-11-10T13:41:21.788Z,0.90
2022-11-10T13:46:30.309Z,0.90
2022-11-10T13:49:10.496Z,0.90
2022-11-10T13:54:02.070Z,0.40
2022-11-10T13:56:33.457Z,0.40
2022-11-10T13:58:49.596Z,0.40
2022-11-10T14:01:25.990Z,0.30
2022-11-10T14:03:53.001Z,0.30
2022-11-10T14:06:23.284Z,0.30
2022-11-10T14:08:54.124Z,0.30
2022-11-10T14:11:24.745Z,0.10
2022-11-10T14:13:54.981Z,0.10
2022-11-10T14:16:22.437Z,0.10
2022-11-10T14:19:02.203Z,0.10
2022-11-10T14:21:29.409Z,0.00
2022-11-10T14:23:55.356Z,0.00
2022-11-10T14:26:25.047Z,0.00
2022-11-10T14:28:49.529Z,0.00
2022-11-10T14:33:54.283Z,1.50
2022-11-10T14:36:19.896Z,1.50
2022-11-10T14:38:51.552Z,1.50
2022-11-10T14:41:21.851Z,0.70
2022-11-10T14:44:00.408Z,0.70
2022-11-10T14:46:23.540Z,0.70
2022-11-10T14:48:56.799Z,0.70
2022-11-10T14:51:19.770Z,0.00
2022-11-10T14:53:52.929Z,0.00
2022-11-10T14:56:22.576Z,0.00
2022-11-10T14:58:50.624Z,0.00
2022-11-10T15:01:23.954Z,0.30
2022-11-10T15:06:20.728Z,0.30
2022-11-10T15:11:33.663Z,0.10
2022-11-10T15:13:49.709Z,0.10
2022-11-10T15:16:21.066Z,0.10
2022-11-10T15:18:50.185Z,0.10
2022-11-10T15:21:21.436Z,0.00
2022-11-10T15:23:53.619Z,0.00
2022-11-10T15:26:21.978Z,0.00
2022-11-10T15:28:50.413Z,0.00
2022-11-10T15:33:52.367Z,0.30
2022-11-10T15:36:28.483Z,0.30
2022-11-10T15:39:01.573Z,0.30
2022-11-10T15:41:27.086Z,0.10
2022-11-10T15:43:49.534Z,0.10
2022-11-10T15:46:24.339Z,0.10
2022-11-10T15:51:24.729Z,0.60
2022-11-10T15:53:51.008Z,0.60
2022-11-10T15:56:21.546Z,0.60
2022-11-10T15:58:56.463Z,0.60
2022-11-10T16:01:19.856Z,0.20
2022-11-10T16:03:49.707Z,0.20
2022-11-10T16:06:19.630Z,0.20
2022-11-10T16:08:50.385Z,0.20
2022-11-10T16:11:22.476Z,0.10
2022-11-10T16:13:52.201Z,0.10
2022-11-10T16:16:22.907Z,0.10
2022-11-10T16:18:50.189Z,0.10
2022-11-10T16:21:21.720Z,0.10
2022-11-10T16:23:50.793Z,0.10
2022-11-10T16:26:23.008Z,0.10
2022-11-10T16:28:49.651Z,0.10
2022-11-10T16:31:21.164Z,0.00
2022-11-10T16:33:49.812Z,0.00
2022-11-10T16:36:24.162Z,0.00
2022-11-10T16:38:50.106Z,0.00
2022-11-10T16:41:19.874Z,0.80
2022-11-10T16:43:50.150Z,0.80
2022-11-10T16:46:22.453Z,0.80
2022-11-10T16:48:51.629Z,0.80
2022-11-10T16:51:27.766Z,0.20
2022-11-10T16:53:50.837Z,0.20
2022-11-10T16:56:20.635Z,0.20
2022-11-10T16:58:49.625Z,0.20
2022-11-10T17:01:22.575Z,0.70
2022-11-10T17:08:52.201Z,0.70
2022-11-10T17:11:20.375Z,0.10
2022-11-10T17:13:49.714Z,0.10
2022-11-10T17:16:25.378Z,0.10
2022-11-10T17:18:50.250Z,0.10
2022-11-10T17:21:21.519Z,1.10
2022-11-10T17:26:20.482Z,1.10
2022-11-10T17:28:49.530Z,1.10
2022-11-10T17:31:19.579Z,0.10
2022-11-10T17:33:49.768Z,0.10
2022-11-10T17:36:21.643Z,0.10
2022-11-10T17:41:19.765Z,0.00
2022-11-10T17:43:49.559Z,0.00
2022-11-10T17:46:19.687Z,0.00
2022-11-10T17:48:49.712Z,0.00
2022-11-10T17:51:20.826Z,0.00
2022-11-10T17:53:49.728Z,0.00
2022-11-10T17:56:19.750Z,0.00
2022-11-10T17:58:49.763Z,0.00
2022-11-10T18:01:21.409Z,0.00
2022-11-10T18:03:49.781Z,0.00
2022-11-10T18:06:20.212Z,0.00
2022-11-10T18:08:49.535Z,0.00
2022-11-10T18:11:19.783Z,0.00
2022-11-10T18:13:49.607Z,0.00
2022-11-10T18:16:20.123Z,0.00
2022-11-10T18:18:49.585Z,0.00
2022-11-10T18:21:19.724Z,0.10
2022-11-10T18:23:50.011Z,0.10
2022-11-10T18:26:19.679Z,0.10
2022-11-10T18:28:49.734Z,0.10
2022-11-10T18:31:19.748Z,0.30
2022-11-10T18:33:52.349Z,0.30
2022-11-10T18:36:19.947Z,0.30
2022-11-10T18:38:49.557Z,0.30
2022-11-10T18:41:29.446Z,0.10
2022-11-10T18:43:49.824Z,0.10
2022-11-10T18:46:20.974Z,0.10
2022-11-10T18:48:49.702Z,0.10
2022-11-10T18:51:19.589Z,0.20
2022-11-10T18:53:49.571Z,0.20
2022-11-10T18:56:19.849Z,0.20
2022-11-10T18:58:56.208Z,0.20
2022-11-10T19:01:21.737Z,0.10
2022-11-10T19:06:19.925Z,0.10
2022-11-10T19:08:50.010Z,0.10
2022-11-10T19:11:19.875Z,0.00
2022-11-10T19:13:49.920Z,0.00
2022-11-10T19:18:49.659Z,0.00
2022-11-10T19:21:22.765Z,0.00
2022-11-10T19:23:53.911Z,0.00
2022-11-10T19:26:22.518Z,0.00
2022-11-10T19:28:52.254Z,0.00
2022-11-10T19:31:21.978Z,0.00
2022-11-10T19:33:52.051Z,0.00
2022-11-10T19:38:49.978Z,0.00
2022-11-10T19:41:21.918Z,0.10
2022-11-10T19:43:49.629Z,0.10
2022-11-10T19:46:21.891Z,0.10
2022-11-10T19:48:49.781Z,0.10
2022-11-10T19:51:21.699Z,0.10
2022-11-10T19:53:56.903Z,0.10
2022-11-10T19:56:20.331Z,0.10
2022-11-10T19:58:50.203Z,0.30
2022-11-10T20:01:20.505Z,0.30
2022-11-10T20:03:49.656Z,0.30
2022-11-10T20:06:21.704Z,0.30
2022-11-10T20:08:49.698Z,0.00
2022-11-10T20:13:54.716Z,0.00
2022-11-10T20:16:19.865Z,0.00
2022-11-10T20:18:49.723Z,0.00
2022-11-10T20:21:22.590Z,0.00
2022-11-10T20:23:52.579Z,0.00
2022-11-10T20:26:20.360Z,0.00
2022-11-10T20:31:23.438Z,0.50
2022-11-10T20:33:50.860Z,0.50
2022-11-10T20:36:21.855Z,0.50
2022-11-10T20:38:50.398Z,0.00
2022-11-10T20:43:50.679Z,0.00
2022-11-10T20:46:52.852Z,0.00
2022-11-10T20:48:49.784Z,0.00
2022-11-10T20:51:20.274Z,0.00
2022-11-10T20:53:49.692Z,0.00
2022-11-10T20:56:20.793Z,0.00
2022-11-10T20:58:51.475Z,0.20
2022-11-10T21:01:19.746Z,0.20
2022-11-10T21:03:50.136Z,0.20
2022-11-10T21:06:19.772Z,0.20
2022-11-10T21:08:49.860Z,0.00
2022-11-10T21:11:32.353Z,0.00
2022-11-10T21:13:49.632Z,0.00
2022-11-10T21:16:19.644Z,0.00
2022-11-10T21:18:54.496Z,0.10
2022-11-10T21:21:21.529Z,0.10
2022-11-10T21:23:56.047Z,0.10
2022-11-10T21:26:19.663Z,0.10
2022-11-10T21:28:49.691Z,0.10
2022-11-10T21:33:50.036Z,0.10
2022-11-10T21:36:19.696Z,0.10
2022-11-10T21:38:49.636Z,0.00
2022-11-10T21:41:19.688Z,0.00
2022-11-10T21:43:49.816Z,0.00
2022-11-10T21:48:50.254Z,0.30
2022-11-10T21:51:20.121Z,0.30
2022-11-10T21:56:19.921Z,0.30
2022-11-10T21:58:49.648Z,0.00
2022-11-10T22:01:21.530Z,0.00
2022-11-10T22:03:49.655Z,0.00
2022-11-10T22:06:21.085Z,0.00
2022-11-10T22:08:50.703Z,0.10
2022-11-10T22:11:30.099Z,0.10
2022-11-10T22:16:32.131Z,0.10
2022-11-10T22:18:49.653Z,0.20
2022-11-10T22:21:19.672Z,0.20
2022-11-10T22:23:59.586Z,0.20
2022-11-10T22:26:19.661Z,0.20
2022-11-10T22:28:49.819Z,0.30
2022-11-10T22:31:19.805Z,0.30
2022-11-10T22:33:49.659Z,0.30
2022-11-10T22:36:20.870Z,0.30
2022-11-10T22:38:49.719Z,0.00
2022-11-10T22:41:29.681Z,0.00
2022-11-10T22:43:59.482Z,0.00
2022-11-10T22:46:19.661Z,0.00
2022-11-10T22:48:49.820Z,0.40
2022-11-10T22:53:49.718Z,0.40
2022-11-10T22:56:19.847Z,0.40
2022-11-10T22:58:51.012Z,0.20
2022-11-10T23:01:19.706Z,0.20
2022-11-10T23:03:51.158Z,0.20
2022-11-10T23:06:19.955Z,0.20
2022-11-10T23:08:49.791Z,0.00
2022-11-10T23:11:21.361Z,0.00
2022-11-10T23:13:49.836Z,0.00
2022-11-10T23:16:23.013Z,0.00
2022-11-10T23:18:51.401Z,0.30
2022-11-10T23:21:22.207Z,0.30
2022-11-10T23:23:50.412Z,0.30
2022-11-10T23:28:51.144Z,0.10
2022-11-10T23:31:22.261Z,0.10
2022-11-10T23:33:52.745Z,0.10
2022-11-10T23:36:21.362Z,0.10
2022-11-10T23:38:49.839Z,0.10
2022-11-10T23:41:22.584Z,0.10
2022-11-10T23:43:49.965Z,0.10
2022-11-10T23:46:20.221Z,0.10
2022-11-10T23:48:49.705Z,0.50
2022-11-10T23:51:19.855Z,0.50
2022-11-10T23:53:49.832Z,0.50
2022-11-10T23:56:19.882Z,0.50
2022-11-10T23:58:49.800Z,0.00
